Time;durP1;ratioP1;P1;durP2;ratioP2;P2;SDS_P1;SDS_P2;PMS_P1;PMS_P2;Temp;Humidity;BMP_temperature;BMP_pressure;BME280_temperature;BME280_humidity;BME280_pressure;Samples;Min_cycle;Max_cycle;Signal;HPM_P1;HPM_P2
2024/02/10 00:02:31;;;;;;;4.03;3.42;;;;;;;;;;6339505;28;20023;-77
2024/02/10 00:05:32;;;;;;;4.68;3.70;;;;;;;;;;6335845;28;20035;-77
2024/02/10 00:08:32;;;;;;;5.22;3.47;;;;;;;;;;6336327;28;20023;-77
2024/02/10 00:11:33;;;;;;;4.30;3.33;;;;;;;;;;6334962;28;20039;-76
2024/02/10 00:14:34;;;;;;;5.68;4.28;;;;;;;;;;6332572;28;20071;-77
2024/02/10 00:17:34;;;;;;;4.53;3.50;;;;;;;;;;6303736;28;20161;-77
2024/02/10 00:20:36;;;;;;;4.33;3.30;;;;;;;;;;6336892;28;20024;-77
2024/02/10 00:23:38;;;;;;;4.85;3.83;;;;;;;;;;6338778;28;20028;-77
2024/02/10 00:26:38;;;;;;;5.03;3.70;;;;;;;;;;6336673;28;20369;-77
2024/02/10 00:29:39;;;;;;;4.13;3.37;;;;;;;;;;6336932;28;20042;-81
2024/02/10 00:32:39;;;;;;;4.50;3.57;;;;;;;;;;6335384;28;20016;-81
2024/02/10 00:35:39;;;;;;;5.33;3.73;;;;;;;;;;6338523;28;20080;-82
2024/02/10 00:38:40;;;;;;;5.20;3.97;;;;;;;;;;6338574;28;20111;-82
2024/02/10 00:41:40;;;;;;;5.10;3.53;;;;;;;;;;6334135;28;20096;-82
2024/02/10 00:44:41;;;;;;;3.43;3.10;;;;;;;;;;6336104;28;20118;-80
2024/02/10 00:47:44;;;;;;;4.03;3.37;;;;;;;;;;6311480;28;20028;-81
2024/02/10 00:50:45;;;;;;;4.75;3.55;;;;;;;;;;6339244;28;20031;-81
2024/02/10 00:53:45;;;;;;;3.42;2.97;;;;;;;;;;6338180;28;20024;-80
2024/02/10 00:56:45;;;;;;;4.40;3.63;;;;;;;;;;6337171;28;20102;-80
2024/02/10 00:59:46;;;;;;;3.77;3.00;;;;;;;;;;6338313;28;20464;-81
2024/02/10 01:02:46;;;;;;;4.55;3.22;;;;;;;;;;6338404;28;20116;-81
2024/02/10 01:05:47;;;;;;;4.90;3.50;;;;;;;;;;6338209;28;20036;-81
2024/02/10 01:08:48;;;;;;;3.80;3.38;;;;;;;;;;6336028;28;20028;-80
2024/02/10 01:11:49;;;;;;;4.72;3.67;;;;;;;;;;6335202;28;20046;-80
2024/02/10 01:14:50;;;;;;;5.23;3.73;;;;;;;;;;6332796;28;20049;-81
2024/02/10 01:17:50;;;;;;;4.07;3.42;;;;;;;;;;6330925;28;20380;-80
2024/02/10 01:20:51;;;;;;;4.83;3.53;;;;;;;;;;6339627;28;20032;-81
2024/02/10 01:23:51;;;;;;;4.03;3.33;;;;;;;;;;6335789;28;20026;-80
2024/02/10 01:26:53;;;;;;;4.30;3.40;;;;;;;;;;6339253;28;20030;-81
2024/02/10 01:29:55;;;;;;;4.20;3.05;;;;;;;;;;6336109;28;20072;-81
2024/02/10 01:32:57;;;;;;;4.50;3.38;;;;;;;;;;6330853;28;20031;-80
2024/02/10 01:36:03;;;;;;;3.50;3.10;;;;;;;;;;6340734;28;20031;-80
2024/02/10 01:39:03;;;;;;;3.47;2.95;;;;;;;;;;6336052;28;20031;-80
2024/02/10 01:42:03;;;;;;;4.63;2.93;;;;;;;;;;6339127;28;20452;-80
2024/02/10 01:45:07;;;;;;;3.87;2.77;;;;;;;;;;6340094;28;20422;-80
2024/02/10 01:48:08;;;;;;;3.97;2.97;;;;;;;;;;6344726;28;20051;-81
2024/02/10 01:51:11;;;;;;;3.97;2.90;;;;;;;;;;6342820;28;20037;-81
2024/02/10 01:54:12;;;;;;;4.05;3.33;;;;;;;;;;6343657;28;20049;-81
2024/02/10 01:57:12;;;;;;;3.90;2.83;;;;;;;;;;6342537;28;20036;-81
2024/02/10 02:00:17;;;;;;;4.50;3.25;;;;;;;;;;6338954;28;20036;-78
2024/02/10 02:03:19;;;;;;;4.10;3.00;;;;;;;;;;6335074;28;20032;-78
2024/02/10 02:06:19;;;;;;;4.25;3.10;;;;;;;;;;6320267;28;20072;-79
2024/02/10 02:09:20;;;;;;;5.23;2.90;;;;;;;;;;6326926;28;20468;-80
2024/02/10 02:12:20;;;;;;;4.33;2.93;;;;;;;;;;6334517;28;20050;-80
2024/02/10 02:15:20;;;;;;;3.77;3.00;;;;;;;;;;6320753;28;20028;-80
2024/02/10 02:18:20;;;;;;;3.47;2.97;;;;;;;;;;6304977;28;20097;-79
2024/02/10 02:21:22;;;;;;;4.57;2.97;;;;;;;;;;6321669;28;20449;-80
2024/02/10 02:24:22;;;;;;;3.95;3.13;;;;;;;;;;6326249;28;20437;-80
2024/02/10 02:27:22;;;;;;;4.33;2.80;;;;;;;;;;6326453;28;20040;-80
2024/02/10 02:30:23;;;;;;;4.30;3.30;;;;;;;;;;6325038;28;20476;-80
2024/02/10 02:33:23;;;;;;;4.07;3.20;;;;;;;;;;6326295;28;20399;-79
2024/02/10 02:36:23;;;;;;;4.17;3.00;;;;;;;;;;6321022;28;20028;-79
2024/02/10 02:39:23;;;;;;;5.90;3.30;;;;;;;;;;6324420;28;20069;-78
2024/02/10 02:42:24;;;;;;;4.40;3.30;;;;;;;;;;6321662;28;20028;-79
2024/02/10 02:45:24;;;;;;;5.43;2.97;;;;;;;;;;6321676;28;20024;-79
2024/02/10 02:48:24;;;;;;;4.30;2.60;;;;;;;;;;6324809;28;20035;-77
2024/02/10 02:51:24;;;;;;;3.60;2.80;;;;;;;;;;6325813;28;20393;-77
2024/02/10 02:54:25;;;;;;;3.87;2.90;;;;;;;;;;6325026;28;20460;-76
2024/02/10 02:57:25;;;;;;;5.90;3.00;;;;;;;;;;6324732;28;20020;-77
2024/02/10 03:00:29;;;;;;;3.47;2.83;;;;;;;;;;6321792;28;20370;-76
2024/02/10 03:03:30;;;;;;;3.90;3.25;;;;;;;;;;6323626;28;20040;-76
2024/02/10 03:06:30;;;;;;;;;;;;;;;;;;6327639;28;20028;-75
2024/02/10 03:09:31;;;;;;;3.33;2.65;;;;;;;;;;6326601;28;19962;-76
2024/02/10 03:12:31;;;;;;;3.93;2.60;;;;;;;;;;6311259;28;20046;-76
2024/02/10 03:15:37;;;;;;;3.90;2.73;;;;;;;;;;6314701;28;20375;-77
2024/02/10 03:18:45;;;;;;;4.18;3.00;;;;;;;;;;6322640;28;20495;-76
2024/02/10 03:21:45;;;;;;;3.72;2.95;;;;;;;;;;6330138;28;20072;-76
2024/02/10 03:24:47;;;;;;;4.03;3.00;;;;;;;;;;6319883;28;20461;-77
2024/02/10 03:27:47;;;;;;;3.50;2.95;;;;;;;;;;6319842;28;20019;-76
2024/02/10 03:30:47;;;;;;;4.30;3.07;;;;;;;;;;6323248;28;20039;-76
2024/02/10 03:33:48;;;;;;;4.60;3.07;;;;;;;;;;6325030;28;20021;-76
2024/02/10 03:36:50;;;;;;;3.80;2.90;;;;;;;;;;6322144;28;20028;-76
2024/02/10 03:39:51;;;;;;;3.80;3.00;;;;;;;;;;6323502;28;20105;-78
2024/02/10 03:42:51;;;;;;;3.23;2.83;;;;;;;;;;6326373;28;20011;-76
2024/02/10 03:45:52;;;;;;;3.80;3.07;;;;;;;;;;6320765;28;20032;-76
2024/02/10 03:48:52;;;;;;;4.55;3.05;;;;;;;;;;6322724;28;20020;-76
2024/02/10 03:51:52;;;;;;;3.37;3.00;;;;;;;;;;6323293;28;20063;-76
2024/02/10 03:54:53;;;;;;;4.80;3.17;;;;;;;;;;6320972;28;20051;-75
2024/02/10 03:57:53;;;;;;;6.13;3.27;;;;;;;;;;6321620;28;20024;-76
2024/02/10 04:00:53;;;;;;;3.53;2.80;;;;;;;;;;6321115;28;20020;-79
2024/02/10 04:03:55;;;;;;;3.13;2.70;;;;;;;;;;6317100;28;20066;-79
2024/02/10 04:06:56;;;;;;;3.92;2.72;;;;;;;;;;6322196;28;20442;-79
2024/02/10 04:09:56;;;;;;;4.17;3.07;;;;;;;;;;6318692;28;20024;-82
2024/02/10 04:12:57;;;;;;;3.67;3.00;;;;;;;;;;6293119;28;20660;-82
2024/02/10 04:15:57;;;;;;;4.10;3.17;;;;;;;;;;6296180;28;20067;-82
2024/02/10 04:18:59;;;;;;;3.43;2.60;;;;;;;;;;6292543;28;20037;-80
2024/02/10 04:22:00;;;;;;;3.90;3.15;;;;;;;;;;6290264;28;20631;-82
2024/02/10 04:25:00;;;;;;;3.47;2.70;;;;;;;;;;6296829;28;20028;-81
2024/02/10 04:28:02;;;;;;;4.37;2.77;;;;;;;;;;6297456;28;20067;-82
2024/02/10 04:31:03;;;;;;;3.33;2.65;;;;;;;;;;6300425;28;20040;-79
2024/02/10 04:34:03;;;;;;;2.85;2.63;;;;;;;;;;6293288;28;20720;-79
2024/02/10 04:37:05;;;;;;;4.00;2.70;;;;;;;;;;6295379;28;20067;-79
2024/02/10 04:40:07;;;;;;;3.78;2.95;;;;;;;;;;6310111;28;20016;-79
2024/02/10 04:43:07;;;;;;;4.82;3.13;;;;;;;;;;6293292;28;20456;-79
2024/02/10 04:46:08;;;;;;;5.73;3.33;;;;;;;;;;6293572;28;20032;-78
2024/02/10 04:49:10;;;;;;;3.45;2.75;;;;;;;;;;6291952;28;20028;-78
2024/02/10 04:52:10;;;;;;;3.88;3.08;;;;;;;;;;6298340;28;20040;-79
2024/02/10 04:55:13;;;;;;;2.87;2.47;;;;;;;;;;6298874;28;20815;-80
2024/02/10 04:58:13;;;;;;;3.08;2.67;;;;;;;;;;6302172;28;20055;-79
2024/02/10 05:01:20;;;;;;;4.27;3.00;;;;;;;;;;6293144;28;20110;-79
2024/02/10 05:04:20;;;;;;;3.70;2.97;;;;;;;;;;6297456;28;20099;-79
2024/02/10 05:07:20;;;;;;;4.87;2.87;;;;;;;;;;6304211;28;20052;-79
2024/02/10 05:10:21;;;;;;;3.80;2.67;;;;;;;;;;6297854;28;20074;-76
2024/02/10 05:13:21;;;;;;;4.80;3.17;;;;;;;;;;6307615;28;20071;-79
2024/02/10 05:16:22;;;;;;;4.17;2.83;;;;;;;;;;6322400;28;20372;-79
2024/02/10 05:19:22;;;;;;;4.97;2.75;;;;;;;;;;6323020;28;20027;-82
2024/02/10 05:22:23;;;;;;;3.87;2.67;;;;;;;;;;6328096;28;20380;-80
2024/02/10 05:25:27;;;;;;;4.95;3.50;;;;;;;;;;6321814;28;20046;-82
2024/02/10 05:28:27;;;;;;;3.63;2.85;;;;;;;;;;6323591;28;20036;-82
2024/02/10 05:31:28;;;;;;;6.47;3.23;;;;;;;;;;6330293;28;20059;-82
2024/02/10 05:34:28;;;;;;;5.40;3.23;;;;;;;;;;6325356;28;20024;-82
2024/02/10 05:37:28;;;;;;;4.67;3.07;;;;;;;;;;6326619;28;20345;-82
2024/02/10 05:40:30;;;;;;;4.63;2.93;;;;;;;;;;6315827;28;20012;-82
2024/02/10 05:43:32;;;;;;;4.72;3.15;;;;;;;;;;6326195;28;20051;-82
2024/02/10 05:46:33;;;;;;;3.65;2.80;;;;;;;;;;6322381;28;20035;-82
2024/02/10 05:49:34;;;;;;;4.33;2.87;;;;;;;;;;6327012;28;20073;-82
2024/02/10 05:52:40;;;;;;;5.97;3.38;;;;;;;;;;6326438;28;20039;-82
2024/02/10 05:55:42;;;;;;;4.13;2.83;;;;;;;;;;6327536;28;20126;-82
2024/02/10 05:58:42;;;;;;;3.17;2.80;;;;;;;;;;6320378;28;20082;-82
2024/02/10 06:01:47;;;;;;;4.25;3.47;;;;;;;;;;6323908;28;20055;-82
2024/02/10 06:04:53;;;;;;;4.25;3.03;;;;;;;;;;6330487;28;20052;-82
2024/02/10 06:07:54;;;;;;;3.25;2.78;;;;;;;;;;6324926;28;20068;-82
2024/02/10 06:10:54;;;;;;;4.47;3.22;;;;;;;;;;6330340;28;20032;-82
2024/02/10 06:13:54;;;;;;;4.63;3.10;;;;;;;;;;6323153;28;20075;-82
2024/02/10 06:16:55;;;;;;;3.93;2.93;;;;;;;;;;6332841;28;20422;-82
2024/02/10 06:19:58;;;;;;;3.70;3.15;;;;;;;;;;6304297;28;20518;-82
2024/02/10 06:22:58;;;;;;;4.35;3.65;;;;;;;;;;6324075;28;20032;-82
2024/02/10 06:25:59;;;;;;;4.47;3.17;;;;;;;;;;6322403;28;20027;-82
2024/02/10 06:28:59;;;;;;;3.83;3.37;;;;;;;;;;6324091;28;20073;-79
2024/02/10 06:32:02;;;;;;;4.33;3.43;;;;;;;;;;6325537;28;20062;-79
2024/02/10 06:35:02;;;;;;;4.53;3.17;;;;;;;;;;6326948;28;20396;-79
2024/02/10 06:38:03;;;;;;;4.00;2.97;;;;;;;;;;6326037;28;20039;-79
2024/02/10 06:41:03;;;;;;;3.57;2.83;;;;;;;;;;6326269;28;20579;-79
2024/02/10 06:44:07;;;;;;;5.33;3.73;;;;;;;;;;6306550;28;20035;-79
2024/02/10 06:47:07;;;;;;;3.92;3.20;;;;;;;;;;6322306;28;20110;-79
2024/02/10 06:50:08;;;;;;;5.63;3.27;;;;;;;;;;6324331;28;20043;-79
2024/02/10 06:53:08;;;;;;;5.50;3.20;;;;;;;;;;6323957;28;20031;-79
2024/02/10 06:56:08;;;;;;;5.27;3.20;;;;;;;;;;6320675;28;20430;-79
2024/02/10 06:59:08;;;;;;;5.20;2.87;;;;;;;;;;6329676;28;20012;-79
2024/02/10 07:02:12;;;;;;;4.87;3.37;;;;;;;;;;6329935;28;20020;-79
2024/02/10 07:05:13;;;;;;;3.83;3.17;;;;;;;;;;6321669;28;20479;-79
2024/02/10 07:08:15;;;;;;;4.78;3.33;;;;;;;;;;6324702;28;20047;-78
2024/02/10 07:11:15;;;;;;;4.40;2.90;;;;;;;;;;6323570;28;20508;-78
2024/02/10 07:14:17;;;;;;;4.80;3.17;;;;;;;;;;6323229;28;20073;-77
2024/02/10 07:17:17;;;;;;;5.70;3.20;;;;;;;;;;6326537;28;20482;-78
2024/02/10 07:20:20;;;;;;;3.77;2.73;;;;;;;;;;6319515;28;20077;-78
2024/02/10 07:23:23;;;;;;;6.57;4.22;;;;;;;;;;6323452;28;20495;-77
2024/02/10 07:26:24;;;;;;;5.15;3.63;;;;;;;;;;6325024;28;20047;-78
2024/02/10 07:29:25;;;;;;;5.10;3.57;;;;;;;;;;6326498;28;20032;-78
2024/02/10 07:32:26;;;;;;;4.77;3.50;;;;;;;;;;6323261;28;20388;-77
2024/02/10 07:35:27;;;;;;;4.32;3.55;;;;;;;;;;6330997;28;20063;-77
2024/02/10 07:38:27;;;;;;;4.30;3.47;;;;;;;;;;6323758;28;20024;-82
2024/02/10 07:41:27;;;;;;;4.93;3.63;;;;;;;;;;6321030;28;20496;-83
2024/02/10 07:44:28;;;;;;;5.43;3.30;;;;;;;;;;6319168;28;20035;-78
2024/02/10 07:47:28;;;;;;;4.73;3.37;;;;;;;;;;6322150;28;20042;-78
2024/02/10 07:50:28;;;;;;;3.57;3.17;;;;;;;;;;6320735;28;20044;-79
2024/02/10 07:53:28;;;;;;;5.03;2.97;;;;;;;;;;6325374;28;20043;-78
2024/02/10 07:56:29;;;;;;;4.97;3.63;;;;;;;;;;6328519;28;20427;-78
2024/02/10 07:59:30;;;;;;;4.50;3.30;;;;;;;;;;6323680;28;20450;-78
2024/02/10 08:02:30;;;;;;;4.32;2.95;;;;;;;;;;6321681;28;20023;-79
2024/02/10 08:05:30;;;;;;;4.90;3.40;;;;;;;;;;6326195;28;20028;-78
2024/02/10 08:08:30;;;;;;;4.07;3.67;;;;;;;;;;6322265;28;20019;-78
2024/02/10 08:11:31;;;;;;;5.33;3.40;;;;;;;;;;6329917;28;20434;-79
2024/02/10 08:14:31;;;;;;;5.23;3.83;;;;;;;;;;6319033;28;20048;-78
2024/02/10 08:17:31;;;;;;;5.50;3.43;;;;;;;;;;6319506;28;20089;-79
2024/02/10 08:20:32;;;;;;;3.97;3.27;;;;;;;;;;6320541;28;20427;-79
2024/02/10 08:23:34;;;;;;;4.77;3.57;;;;;;;;;;6326499;28;20023;-78
2024/02/10 08:26:37;;;;;;;4.65;3.60;;;;;;;;;;6321958;28;20080;-79
2024/02/10 08:29:39;;;;;;;4.72;3.30;;;;;;;;;;6320717;28;20050;-78
2024/02/10 08:32:39;;;;;;;4.78;3.15;;;;;;;;;;6323000;28;20023;-78
2024/02/10 08:35:40;;;;;;;4.90;3.47;;;;;;;;;;6320822;28;20426;-78
2024/02/10 08:38:41;;;;;;;4.82;3.58;;;;;;;;;;6322232;28;20486;-78
2024/02/10 08:41:41;;;;;;;4.37;2.87;;;;;;;;;;6321541;28;20255;-78
2024/02/10 08:44:45;;;;;;;5.37;2.97;;;;;;;;;;6324146;28;20024;-81
2024/02/10 08:47:47;;;;;;;6.15;4.35;;;;;;;;;;6323094;28;20028;-80
2024/02/10 08:50:48;;;;;;;9.98;6.32;;;;;;;;;;6325239;28;20046;-81
2024/02/10 08:53:48;;;;;;;7.13;5.43;;;;;;;;;;6328436;28;20035;-81
2024/02/10 08:56:48;;;;;;;5.70;4.43;;;;;;;;;;6326489;28;20392;-81
2024/02/10 08:59:50;;;;;;;6.67;3.80;;;;;;;;;;6318812;28;20422;-79
2024/02/10 09:02:53;;;;;;;4.47;3.63;;;;;;;;;;6332352;28;20031;-80
2024/02/10 09:05:53;;;;;;;5.70;4.45;;;;;;;;;;6333112;28;20428;-77
2024/02/10 09:08:53;;;;;;;4.80;3.67;;;;;;;;;;6321732;28;20020;-75
2024/02/10 09:11:54;;;;;;;4.47;3.60;;;;;;;;;;6316687;28;20177;-74
2024/02/10 09:14:54;;;;;;;4.60;4.00;;;;;;;;;;6325088;28;20124;-75
2024/02/10 09:17:54;;;;;;;4.63;3.57;;;;;;;;;;6332175;28;20035;-75
2024/02/10 09:20:55;;;;;;;5.67;3.33;;;;;;;;;;6326106;28;20073;-75
2024/02/10 09:23:56;;;;;;;5.10;3.63;;;;;;;;;;6319266;28;20030;-80
2024/02/10 09:26:56;;;;;;;5.30;3.50;;;;;;;;;;6325848;28;20472;-80
2024/02/10 09:29:57;;;;;;;4.97;3.63;;;;;;;;;;6323313;28;20116;-79
2024/02/10 09:32:58;;;;;;;4.45;3.83;;;;;;;;;;6329151;28;20258;-81
2024/02/10 09:35:58;;;;;;;4.37;3.67;;;;;;;;;;6330664;28;20114;-81
2024/02/10 09:38:58;;;;;;;6.00;4.80;;;;;;;;;;6326328;28;20032;-82
2024/02/10 09:42:00;;;;;;;4.80;3.87;;;;;;;;;;6331325;28;20626;-81
2024/02/10 09:45:01;;;;;;;5.70;4.03;;;;;;;;;;6329431;28;20035;-78
2024/02/10 09:48:01;;;;;;;5.20;4.10;;;;;;;;;;6330206;28;20050;-78
2024/02/10 09:51:02;;;;;;;4.97;3.85;;;;;;;;;;6310562;28;20028;-79
2024/02/10 09:54:02;;;;;;;5.60;4.00;;;;;;;;;;6328264;28;20430;-79
2024/02/10 09:57:07;;;;;;;4.57;3.50;;;;;;;;;;6325866;28;20610;-78
2024/02/10 10:00:08;;;;;;;4.35;3.35;;;;;;;;;;6333501;27;20035;-82
2024/02/10 10:03:14;;;;;;;3.83;3.00;;;;;;;;;;6329788;27;20034;-83
2024/02/10 10:06:14;;;;;;;4.07;3.38;;;;;;;;;;6329783;28;20036;-82
2024/02/10 10:09:23;;;;;;;5.00;3.40;;;;;;;;;;6327699;28;20078;-83
2024/02/10 10:12:25;;;;;;;4.47;3.47;;;;;;;;;;6327751;28;20055;-82
2024/02/10 10:15:26;;;;;;;3.42;2.92;;;;;;;;;;6317948;28;20038;-82
2024/02/10 10:18:28;;;;;;;3.60;2.97;;;;;;;;;;6328415;28;20028;-82
2024/02/10 10:21:30;;;;;;;4.03;2.75;;;;;;;;;;6329037;28;20086;-82
2024/02/10 10:24:30;;;;;;;4.00;2.70;;;;;;;;;;6334857;28;20031;-82
2024/02/10 10:27:31;;;;;;;3.47;2.80;;;;;;;;;;6330403;27;20032;-82
2024/02/10 10:30:33;;;;;;;3.90;2.95;;;;;;;;;;5976658;28;10000578;-82
2024/02/10 10:33:33;;;;;;;2.78;2.47;;;;;;;;;;6317704;28;20456;-82
2024/02/10 10:36:35;;;;;;;2.88;2.58;;;;;;;;;;6330265;28;20024;-83
2024/02/10 10:39:36;;;;;;;3.20;2.53;;;;;;;;;;6310756;28;20036;-83
2024/02/10 10:42:36;;;;;;;;;;;;;;;;;;6336200;28;20031;-82
2024/02/10 10:45:37;;;;;;;1.98;1.77;;;;;;;;;;6330222;28;19926;-83
2024/02/10 10:48:38;;;;;;;3.20;2.00;;;;;;;;;;6333644;27;20060;-83
2024/02/10 10:52:05;;;;;;;3.43;2.17;;;;;;;;;;6339743;27;20085;-82
2024/02/10 10:55:08;;;;;;;2.35;2.13;;;;;;;;;;6328870;28;20028;-81
2024/02/10 10:58:16;;;;;;;2.30;1.85;;;;;;;;;;6320139;28;20027;-81
2024/02/10 11:01:20;;;;;;;2.67;2.30;;;;;;;;;;6318798;28;22692;-81
2024/02/10 11:04:21;;;;;;;2.17;1.98;;;;;;;;;;6333233;27;20418;-81
2024/02/10 11:07:22;;;;;;;2.85;2.28;;;;;;;;;;6332406;28;20031;-81
2024/02/10 11:10:36;;;;;;;3.22;2.28;;;;;;;;;;6333498;28;20454;-81
2024/02/10 11:13:38;;;;;;;2.55;1.95;;;;;;;;;;6312695;28;20156;-80
2024/02/10 11:16:42;;;;;;;2.22;1.70;;;;;;;;;;6330050;28;20454;-80
2024/02/10 11:19:42;;;;;;;2.92;1.95;;;;;;;;;;6331983;28;20035;-79
2024/02/10 11:22:45;;;;;;;2.73;1.93;;;;;;;;;;6337623;28;20031;-78
2024/02/10 11:25:46;;;;;;;2.78;1.48;;;;;;;;;;6335883;28;20030;-80
2024/02/10 11:28:47;;;;;;;3.28;1.40;;;;;;;;;;6333369;28;20026;-80
2024/02/10 11:31:48;;;;;;;1.70;1.50;;;;;;;;;;6305313;28;20024;-79
2024/02/10 11:34:48;;;;;;;1.55;1.45;;;;;;;;;;6329397;28;20524;-78
2024/02/10 11:37:55;;;;;;;1.95;1.30;;;;;;;;;;6266922;27;20419;-79
2024/02/10 11:40:55;;;;;;;1.83;1.30;;;;;;;;;;6266313;28;20060;-79
2024/02/10 11:43:56;;;;;;;1.87;1.07;;;;;;;;;;6261780;28;20069;-79
2024/02/10 11:46:58;;;;;;;1.77;1.33;;;;;;;;;;6264075;28;20036;-79
2024/02/10 11:49:59;;;;;;;1.20;1.10;;;;;;;;;;6263100;28;20021;-79
2024/02/10 11:53:00;;;;;;;1.50;1.17;;;;;;;;;;6266333;28;20404;-79
2024/02/10 11:56:05;;;;;;;1.20;1.05;;;;;;;;;;6262971;28;20132;-79
2024/02/10 11:59:05;;;;;;;1.13;0.88;;;;;;;;;;6262277;28;20171;-79
2024/02/10 12:02:06;;;;;;;1.57;1.20;;;;;;;;;;6262920;28;20480;-79
2024/02/10 12:05:07;;;;;;;1.90;1.40;;;;;;;;;;6263619;28;20088;-79
2024/02/10 12:08:08;;;;;;;1.90;1.27;;;;;;;;;;6264905;28;20275;-78
2024/02/10 12:11:14;;;;;;;1.13;0.95;;;;;;;;;;6264096;28;20398;-77
2024/02/10 12:14:15;;;;;;;1.30;1.20;;;;;;;;;;6263882;28;20033;-77
2024/02/10 12:17:19;;;;;;;1.00;0.85;;;;;;;;;;6264526;28;20033;-77
2024/02/10 12:20:19;;;;;;;1.50;1.02;;;;;;;;;;6260822;28;20040;-79
2024/02/10 12:23:19;;;;;;;2.00;1.20;;;;;;;;;;6263796;28;20037;-78
2024/02/10 12:26:23;;;;;;;1.60;1.20;;;;;;;;;;6262897;28;20024;-79
2024/02/10 12:29:23;;;;;;;1.70;1.05;;;;;;;;;;6263426;28;20067;-80
2024/02/10 12:32:32;;;;;;;1.17;1.00;;;;;;;;;;6261515;28;20025;-78
2024/02/10 12:35:33;;;;;;;1.35;0.98;;;;;;;;;;6262215;28;20175;-78
2024/02/10 12:38:34;;;;;;;1.50;0.90;;;;;;;;;;6263852;28;20036;-83
2024/02/10 12:41:35;;;;;;;2.83;1.07;;;;;;;;;;6267930;28;20112;-83
2024/02/10 12:44:37;;;;;;;1.20;1.10;;;;;;;;;;6259472;28;20028;-87
2024/02/10 12:47:37;;;;;;;3.03;1.60;;;;;;;;;;6255800;28;20025;-81
2024/02/10 12:50:40;;;;;;;1.80;1.37;;;;;;;;;;6246667;28;20018;-81
2024/02/10 12:53:40;;;;;;;2.38;1.10;;;;;;;;;;6251282;28;20076;-80
2024/02/10 12:56:42;;;;;;;1.10;0.93;;;;;;;;;;6251133;28;20482;-80
2024/02/10 12:59:44;;;;;;;1.80;1.10;;;;;;;;;;6245218;28;20033;-81
2024/02/10 13:02:46;;;;;;;1.23;1.13;;;;;;;;;;6278055;28;20049;-81
2024/02/10 13:05:46;;;;;;;2.30;1.25;;;;;;;;;;6246262;28;20033;-80
2024/02/10 13:08:46;;;;;;;0.90;0.80;;;;;;;;;;6248754;28;20033;-81
2024/02/10 13:11:48;;;;;;;1.40;1.03;;;;;;;;;;6245890;28;20086;-86
2024/02/10 13:14:48;;;;;;;1.13;1.02;;;;;;;;;;6298248;28;20097;-86
2024/02/10 13:17:49;;;;;;;1.67;1.17;;;;;;;;;;6297255;28;20469;-85
2024/02/10 13:20:50;;;;;;;2.15;1.38;;;;;;;;;;6296043;28;20024;-85
2024/02/10 13:23:50;;;;;;;1.83;1.50;;;;;;;;;;6292427;28;20032;-85
2024/02/10 13:26:50;;;;;;;3.92;1.75;;;;;;;;;;6294842;28;20398;-85
2024/02/10 13:29:51;;;;;;;2.10;1.83;;;;;;;;;;6302022;28;20048;-83
2024/02/10 13:32:56;;;;;;;2.20;2.00;;;;;;;;;;6296850;28;20374;-82
2024/02/10 13:35:57;;;;;;;3.13;1.88;;;;;;;;;;6296343;28;20082;-83
2024/02/10 14:03:00;;;;;;;3.92;1.92;;;;;;;;;;6300774;28;20038;-82
2024/02/10 14:05:13;;;;;;;2.23;1.77;;;;;;;;;;6283073;28;20082;-82
2024/02/10 14:11:22;;;;;;;1.98;1.65;;;;;;;;;;6297583;28;20051;-82
2024/02/10 14:14:22;;;;;;;2.28;1.33;;;;;;;;;;6294503;28;20082;-82
2024/02/10 14:17:24;;;;;;;1.40;1.30;;;;;;;;;;6296758;28;20392;-84
2024/02/10 14:20:29;;;;;;;1.60;1.25;;;;;;;;;;6300409;28;20081;-83
2024/02/10 14:23:30;;;;;;;2.40;1.60;;;;;;;;;;6297191;28;20066;-83
2024/02/10 14:26:51;;;;;;;1.95;1.27;;;;;;;;;;6297779;28;20060;-83
2024/02/10 14:29:54;;;;;;;1.60;1.10;;;;;;;;;;6296528;28;20032;-83
2024/02/10 14:32:54;;;;;;;2.90;1.27;;;;;;;;;;6299112;28;20064;-83
2024/02/10 14:36:02;;;;;;;2.03;1.23;;;;;;;;;;6295568;28;20035;-82
2024/02/10 14:39:13;;;;;;;1.73;1.42;;;;;;;;;;6297685;28;20342;-83
2024/02/10 14:42:13;;;;;;;;;;;;;;;;;;6297125;28;20032;-82
2024/02/10 14:45:19;;;;;;;1.97;0.90;;;;;;;;;;6307961;28;19932;-82
2024/02/10 14:48:22;;;;;;;1.58;1.05;;;;;;;;;;6297033;28;20079;-82
2024/02/10 14:51:22;;;;;;;2.35;1.20;;;;;;;;;;6293805;28;20461;-89
2024/02/10 14:54:24;;;;;;;1.43;1.17;;;;;;;;;;6301077;28;20028;-82
2024/02/10 14:57:24;;;;;;;1.50;1.27;;;;;;;;;;6298349;28;20040;-83
2024/02/10 15:00:30;;;;;;;1.37;1.20;;;;;;;;;;6295288;28;20133;-84
2024/02/10 15:03:37;;;;;;;1.35;1.25;;;;;;;;;;6294317;28;20016;-83
2024/02/10 15:06:40;;;;;;;1.38;1.25;;;;;;;;;;6295965;28;20035;-82
2024/02/10 15:09:40;;;;;;;2.15;1.70;;;;;;;;;;6295721;28;20024;-82
2024/02/10 15:12:41;;;;;;;2.23;1.93;;;;;;;;;;6291386;28;20057;-83
2024/02/10 15:15:45;;;;;;;2.63;1.83;;;;;;;;;;6293913;28;20456;-83
2024/02/10 15:18:45;;;;;;;3.30;1.80;;;;;;;;;;6290317;28;20036;-83
2024/02/10 15:21:45;;;;;;;3.23;1.77;;;;;;;;;;6296872;28;20026;-82
2024/02/10 15:24:46;;;;;;;3.00;1.90;;;;;;;;;;6293635;28;21939;-83
2024/02/10 15:27:49;;;;;;;2.63;1.60;;;;;;;;;;6293033;28;20031;-83
2024/02/10 15:30:53;;;;;;;2.70;1.67;;;;;;;;;;6295219;28;20060;-83
2024/02/10 15:33:56;;;;;;;2.40;1.80;;;;;;;;;;6294739;28;20119;-83
2024/02/10 15:36:56;;;;;;;1.88;1.45;;;;;;;;;;6295676;28;20032;-82
2024/02/10 15:39:56;;;;;;;3.07;1.47;;;;;;;;;;6295733;28;20043;-82
2024/02/10 15:42:57;;;;;;;3.07;1.03;;;;;;;;;;6293394;28;20118;-82
2024/02/10 15:46:00;;;;;;;1.52;0.95;;;;;;;;;;6291121;28;20097;-82
2024/02/10 15:49:01;;;;;;;2.50;1.00;;;;;;;;;;6297232;28;20055;-81
2024/02/10 15:52:02;;;;;;;2.95;1.15;;;;;;;;;;6295147;28;20023;-87
2024/02/10 15:55:03;;;;;;;1.90;1.00;;;;;;;;;;6294841;28;20033;-86
2024/02/10 15:58:04;;;;;;;1.35;0.85;;;;;;;;;;6293544;28;20076;-90
2024/02/10 16:01:06;;;;;;;2.67;1.00;;;;;;;;;;6297694;28;20054;-88
2024/02/10 16:04:10;;;;;;;3.75;1.00;;;;;;;;;;6295671;28;20028;-88
2024/02/10 16:07:11;;;;;;;1.80;1.08;;;;;;;;;;6294628;28;20813;-89
2024/02/10 16:10:11;;;;;;;2.90;1.07;;;;;;;;;;6297772;28;20024;-88
2024/02/10 16:13:12;;;;;;;1.93;1.10;;;;;;;;;;6299700;28;20604;-87
2024/02/10 16:16:20;;;;;;;3.38;1.33;;;;;;;;;;6296621;28;20028;-87
2024/02/10 16:19:21;;;;;;;4.97;0.98;;;;;;;;;;6292020;28;20051;-89
2024/02/10 16:22:21;;;;;;;3.33;1.13;;;;;;;;;;6299013;28;20401;-80
2024/02/10 16:25:27;;;;;;;4.17;1.40;;;;;;;;;;6295293;28;20019;-80
2024/02/10 16:28:30;;;;;;;3.35;1.20;;;;;;;;;;6303653;28;20420;-80
2024/02/10 16:31:30;;;;;;;3.63;1.42;;;;;;;;;;6295624;28;20480;-80
2024/02/10 16:34:33;;;;;;;1.30;0.90;;;;;;;;;;6295183;28;20069;-79
2024/02/10 16:37:33;;;;;;;2.28;0.90;;;;;;;;;;6298183;28;20112;-80
2024/02/10 16:40:35;;;;;;;2.37;1.20;;;;;;;;;;6295140;28;20455;-80
2024/02/10 16:43:35;;;;;;;4.22;1.50;;;;;;;;;;6297942;28;20025;-79
2024/02/10 16:46:35;;;;;;;2.60;1.33;;;;;;;;;;6297880;28;20139;-80
2024/02/10 16:49:37;;;;;;;3.80;1.13;;;;;;;;;;6295136;28;20018;-79
2024/02/10 16:52:38;;;;;;;4.25;1.20;;;;;;;;;;6298554;28;20059;-80
2024/02/10 16:55:42;;;;;;;4.82;1.27;;;;;;;;;;6294110;28;20029;-79
2024/02/10 16:58:42;;;;;;;1.98;1.38;;;;;;;;;;6294167;28;20120;-79
2024/02/10 17:01:42;;;;;;;3.67;1.87;;;;;;;;;;6300125;28;20032;-79
2024/02/10 17:04:42;;;;;;;4.03;2.10;;;;;;;;;;6296093;28;20024;-76
2024/02/10 17:07:43;;;;;;;3.87;1.77;;;;;;;;;;6300215;28;20044;-75
2024/02/10 17:10:45;;;;;;;5.00;1.40;;;;;;;;;;6301472;28;20017;-78
2024/02/10 17:13:46;;;;;;;2.30;0.98;;;;;;;;;;6305884;28;20416;-76
2024/02/10 17:16:46;;;;;;;3.70;1.30;;;;;;;;;;6296686;28;20040;-77
2024/02/10 17:19:47;;;;;;;2.60;1.20;;;;;;;;;;6301597;28;20090;-75
2024/02/10 17:22:51;;;;;;;4.77;1.10;;;;;;;;;;6297670;28;20078;-76
2024/02/10 17:25:54;;;;;;;2.15;1.27;;;;;;;;;;6304888;28;20044;-76
2024/02/10 17:29:01;;;;;;;2.38;1.38;;;;;;;;;;6299881;28;20116;-76
2024/02/10 17:32:01;;;;;;;2.28;1.17;;;;;;;;;;6301567;28;20453;-74
2024/02/10 17:35:02;;;;;;;3.73;1.30;;;;;;;;;;6296580;28;20028;-73
2024/02/10 17:38:05;;;;;;;1.80;1.27;;;;;;;;;;6300729;28;20036;-75
2024/02/10 17:41:09;;;;;;;2.33;1.00;;;;;;;;;;6298141;28;20134;-74
2024/02/10 17:44:12;;;;;;;2.40;0.98;;;;;;;;;;6294856;28;20062;-76
2024/02/10 17:47:17;;;;;;;1.95;1.00;;;;;;;;;;6301698;28;20042;-75
2024/02/10 17:50:24;;;;;;;2.90;1.15;;;;;;;;;;6294953;28;20120;-79
2024/02/10 17:53:25;;;;;;;3.13;0.93;;;;;;;;;;6296411;28;20027;-78
2024/02/10 17:56:25;;;;;;;3.93;0.97;;;;;;;;;;6295034;28;20103;-78
2024/02/10 17:59:27;;;;;;;2.80;1.30;;;;;;;;;;6292756;28;20267;-79
2024/02/10 18:02:27;;;;;;;2.50;0.93;;;;;;;;;;6294444;28;20027;-75
2024/02/10 18:05:28;;;;;;;2.60;0.90;;;;;;;;;;6303097;28;20020;-75
2024/02/10 18:08:30;;;;;;;2.53;1.00;;;;;;;;;;6306706;28;20124;-75
2024/02/10 18:11:30;;;;;;;1.52;1.00;;;;;;;;;;6297913;28;20025;-78
2024/02/10 18:14:30;;;;;;;3.63;1.10;;;;;;;;;;6294145;28;20060;-77
2024/02/10 18:17:30;;;;;;;4.33;1.20;;;;;;;;;;6295630;28;20037;-78
2024/02/10 18:20:33;;;;;;;3.90;1.00;;;;;;;;;;6298916;28;20435;-77
2024/02/10 18:23:34;;;;;;;2.72;1.08;;;;;;;;;;6303124;28;20028;-79
2024/02/10 18:26:39;;;;;;;4.45;0.93;;;;;;;;;;6295447;28;20054;-80
2024/02/10 18:29:39;;;;;;;3.83;1.30;;;;;;;;;;6296276;28;20024;-80
2024/02/10 18:32:39;;;;;;;4.03;1.17;;;;;;;;;;6307061;28;20036;-79
2024/02/10 18:35:42;;;;;;;3.00;1.03;;;;;;;;;;6293588;28;20043;-79